Time;durP1;ratioP1;P1;durP2;ratioP2;P2;SDS_P1;SDS_P2;PMS_P1;PMS_P2;Temp;Humidity;BMP_temperature;BMP_pressure;BME280_temperature;BME280_humidity;BME280_pressure;Samples;Min_cycle;Max_cycle;Signal;HPM_P1;HPM_P2
2021/05/22 00:01:36;;;;;;;1.57;0.60;;;11.70;44.00;;;;;;5155633;27;37872;-85
2021/05/22 00:04:03;;;;;;;1.10;0.60;;;11.80;44.20;;;;;;5132243;27;38294;-85
2021/05/22 00:06:33;;;;;;;2.33;0.90;;;11.80;44.10;;;;;;5129736;27;37787;-84
2021/05/22 00:09:01;;;;;;;2.40;0.60;;;11.70;43.90;;;;;;5153531;27;38328;-84
2021/05/22 00:11:29;;;;;;;1.10;0.70;;;11.70;43.90;;;;;;5139590;27;37108;-85
2021/05/22 00:13:56;;;;;;;1.27;0.60;;;11.80;43.90;;;;;;5153818;27;40150;-85
2021/05/22 00:16:24;;;;;;;2.20;0.60;;;11.70;43.90;;;;;;5146098;27;40618;-85
2021/05/22 00:18:52;;;;;;;1.57;0.80;;;11.70;44.00;;;;;;5135446;27;36759;-84
2021/05/22 00:21:22;;;;;;;1.10;0.70;;;11.70;43.80;;;;;;5135198;27;35533;-83
2021/05/22 00:23:52;;;;;;;0.87;0.60;;;11.60;43.90;;;;;;5135069;27;38790;-85
2021/05/22 00:26:21;;;;;;;1.20;0.60;;;11.60;43.80;;;;;;5145059;27;39116;-85
2021/05/22 00:28:48;;;;;;;0.93;0.67;;;11.60;44.00;;;;;;5134897;27;38294;-84
2021/05/22 00:31:18;;;;;;;1.83;0.50;;;11.60;43.80;;;;;;5134546;27;36205;-84
2021/05/22 00:33:46;;;;;;;1.27;0.70;;;11.60;43.90;;;;;;5133319;27;38540;-85
2021/05/22 00:36:13;;;;;;;1.13;0.60;;;11.60;43.70;;;;;;5124775;27;39232;-86
2021/05/22 00:38:40;;;;;;;1.47;0.60;;;11.60;43.50;;;;;;5157213;27;39088;-86
2021/05/22 00:41:07;;;;;;;1.63;0.50;;;11.60;43.40;;;;;;5126532;27;37047;-84
2021/05/22 00:43:38;;;;;;;1.20;0.70;;;11.50;43.40;;;;;;5154174;27;38371;-85
2021/05/22 00:46:05;;;;;;;2.17;0.50;;;11.50;43.30;;;;;;5145509;27;40559;-85
2021/05/22 00:48:35;;;;;;;1.17;0.60;;;11.50;43.20;;;;;;5136324;27;38258;-83
2021/05/22 00:51:06;;;;;;;0.80;0.50;;;11.60;43.00;;;;;;5139392;27;37026;-85
2021/05/22 00:53:33;;;;;;;1.27;0.80;;;11.60;42.80;;;;;;5153488;27;41426;-84
2021/05/22 00:56:05;;;;;;;0.90;0.50;;;11.50;43.00;;;;;;5125659;27;39169;-85
2021/05/22 00:58:34;;;;;;;1.17;0.90;;;11.50;42.90;;;;;;5135248;27;36822;-86
2021/05/22 01:01:04;;;;;;;0.90;0.50;;;11.50;43.50;;;;;;5136946;27;37227;-84
2021/05/22 01:03:34;;;;;;;1.47;0.70;;;11.50;43.00;;;;;;5153422;27;40026;-85
2021/05/22 01:06:11;;;;;;;1.50;0.53;;;11.40;43.10;;;;;;5143406;27;39728;-86
2021/05/22 01:08:40;;;;;;;0.80;0.60;;;11.40;43.20;;;;;;5114636;27;38422;-85
2021/05/22 01:11:13;;;;;;;2.80;1.03;;;11.40;43.30;;;;;;5125284;27;36388;-85
2021/05/22 01:13:45;;;;;;;0.93;0.53;;;11.40;43.60;;;;;;5120546;27;39578;-85
2021/05/22 01:16:14;;;;;;;1.57;0.70;;;11.30;43.20;;;;;;5130557;27;39189;-85
2021/05/22 01:18:45;;;;;;;0.77;0.60;;;11.30;43.30;;;;;;5113524;27;38621;-85
2021/05/22 01:21:12;;;;;;;0.93;0.60;;;11.30;43.20;;;;;;5131285;27;35891;-84
2021/05/22 01:23:43;;;;;;;0.80;0.67;;;11.30;43.30;;;;;;5122616;27;38651;-84
2021/05/22 01:26:15;;;;;;;1.73;0.70;;;11.30;43.30;;;;;;5114724;27;39596;-86
2021/05/22 01:28:45;;;;;;;1.30;0.67;;;11.20;43.40;;;;;;5119388;27;38891;-86
2021/05/22 01:31:14;;;;;;;1.47;1.00;;;11.20;43.40;;;;;;5138129;27;37383;-86
2021/05/22 01:33:42;;;;;;;0.97;0.50;;;11.20;43.60;;;;;;5127534;27;38381;-85
2021/05/22 01:36:09;;;;;;;1.57;0.87;;;11.20;43.50;;;;;;5134618;27;38915;-83
2021/05/22 01:38:38;;;;;;;1.47;0.70;;;11.20;43.60;;;;;;5137454;27;37971;-85
2021/05/22 01:41:11;;;;;;;1.53;0.70;;;11.20;44.30;;;;;;5114063;27;37701;-84
2021/05/22 01:43:42;;;;;;;1.67;0.60;;;11.20;43.70;;;;;;5136999;27;40094;-82
2021/05/22 01:46:10;;;;;;;0.90;0.60;;;11.20;43.80;;;;;;5116136;27;37771;-85
2021/05/22 01:48:41;;;;;;;1.70;0.63;;;11.20;43.90;;;;;;5127407;27;38787;-85
2021/05/22 01:51:14;;;;;;;1.83;0.60;;;11.20;43.80;;;;;;5134752;27;37656;-84
2021/05/22 01:54:01;;;;;;;1.53;0.67;;;11.20;43.80;;;;;;5137293;27;39572;-83
2021/05/22 01:56:28;;;;;;;1.57;0.90;;;11.30;43.90;;;;;;5130844;27;40342;-84
2021/05/22 01:58:56;;;;;;;1.57;0.57;;;11.30;43.70;;;;;;5140545;27;38531;-82
2021/05/22 02:01:25;;;;;;;3.83;0.90;;;11.40;43.90;;;;;;5113359;27;37269;-85
2021/05/22 02:03:56;;;;;;;2.57;1.23;;;11.40;43.80;;;;;;5132553;27;39118;-84
2021/05/22 02:06:28;;;;;;;2.20;0.83;;;11.50;43.80;;;;;;5100509;27;37900;-84
2021/05/22 02:08:57;;;;;;;2.13;0.77;;;11.50;43.80;;;;;;5131511;27;38049;-84
2021/05/22 02:11:26;;;;;;;2.97;0.60;;;11.50;43.90;;;;;;5120329;27;37071;-84
2021/05/22 02:13:55;;;;;;;0.90;0.60;;;11.50;44.00;;;;;;5131699;27;40342;-84
2021/05/22 02:16:27;;;;;;;2.90;1.10;;;11.50;43.80;;;;;;5113538;27;37711;-84
2021/05/22 02:18:56;;;;;;;2.20;0.80;;;11.50;43.60;;;;;;5116729;27;37658;-85
2021/05/22 02:21:24;;;;;;;3.90;0.60;;;11.60;43.40;;;;;;5112202;27;35852;-84
2021/05/22 02:23:51;;;;;;;1.70;0.80;;;11.60;43.40;;;;;;5133231;27;39887;-84
2021/05/22 02:26:22;;;;;;;1.90;0.70;;;11.60;43.20;;;;;;5111408;27;37555;-83
2021/05/22 02:28:50;;;;;;;1.10;0.60;;;11.60;43.20;;;;;;5133849;27;37568;-84
2021/05/22 02:31:18;;;;;;;1.53;0.50;;;11.60;43.40;;;;;;5124130;27;37045;-85
2021/05/22 02:33:47;;;;;;;0.80;0.63;;;11.50;43.20;;;;;;5134339;27;39789;-84
2021/05/22 02:36:15;;;;;;;1.53;0.80;;;11.60;43.20;;;;;;5108377;27;38920;-84
2021/05/22 02:38:48;;;;;;;2.13;0.70;;;11.60;43.20;;;;;;5123423;27;38514;-84
2021/05/22 02:41:16;;;;;;;3.00;0.70;;;11.60;43.30;;;;;;5115469;27;37238;-83
2021/05/22 02:43:46;;;;;;;4.90;1.63;;;11.60;43.40;;;;;;5106893;27;38601;-84
2021/05/22 02:46:15;;;;;;;1.30;0.60;;;11.70;43.20;;;;;;5100971;27;37741;-84
2021/05/22 02:48:44;;;;;;;0.80;0.50;;;11.70;43.30;;;;;;5133469;27;38521;-85
2021/05/22 02:51:15;;;;;;;1.17;0.73;;;11.70;43.40;;;;;;5105106;27;36902;-84
2021/05/22 02:53:45;;;;;;;4.47;1.03;;;11.70;43.40;;;;;;5143653;27;40420;-84
2021/05/22 02:56:14;;;;;;;3.43;0.90;;;11.60;43.50;;;;;;5112984;27;38236;-84
2021/05/22 02:58:44;;;;;;;1.30;0.70;;;11.60;43.70;;;;;;5107560;27;37717;-84
2021/05/22 03:01:11;;;;;;;2.60;0.67;;;11.60;43.80;;;;;;5118837;27;38210;-84
2021/05/22 03:03:40;;;;;;;1.97;0.90;;;11.60;43.90;;;;;;5104186;27;39590;-83
2021/05/22 03:06:07;;;;;;;1.53;0.70;;;11.60;44.20;;;;;;5096623;27;37850;-84
2021/05/22 03:08:44;;;;;;;1.73;0.90;;;11.60;44.40;;;;;;5109524;27;36645;-84
2021/05/22 03:11:12;;;;;;;0.97;0.53;;;11.50;44.40;;;;;;5115125;27;36144;-84
2021/05/22 03:13:39;;;;;;;3.63;0.67;;;11.50;44.50;;;;;;5141336;27;40265;-85
2021/05/22 03:16:06;;;;;;;3.80;0.80;;;11.50;44.60;;;;;;5116301;27;38594;-84
2021/05/22 03:18:33;;;;;;;2.83;0.87;;;11.50;44.80;;;;;;5131590;27;37837;-83
2021/05/22 03:21:01;;;;;;;2.33;0.70;;;11.50;44.90;;;;;;5131341;27;37185;-84
2021/05/22 03:23:31;;;;;;;0.90;0.73;;;11.40;45.00;;;;;;5127623;27;39596;-86
2021/05/22 03:25:59;;;;;;;2.20;0.70;;;11.40;45.10;;;;;;5114141;27;38340;-85
2021/05/22 03:28:26;;;;;;;2.30;0.80;;;11.30;45.40;;;;;;5111877;27;36917;-83
2021/05/22 03:30:53;;;;;;;0.93;0.60;;;11.10;45.70;;;;;;5120542;27;37329;-83
2021/05/22 03:33:20;;;;;;;1.80;0.70;;;11.10;45.70;;;;;;5125229;27;39088;-83
2021/05/22 03:35:47;;;;;;;1.40;0.70;;;10.90;46.00;;;;;;5102443;27;37990;-84
2021/05/22 03:38:14;;;;;;;3.43;0.90;;;10.80;46.30;;;;;;5112584;27;37138;-83
2021/05/22 03:40:41;;;;;;;4.30;1.00;;;10.60;46.80;;;;;;5117410;27;36922;-82
2021/05/22 03:43:09;;;;;;;1.73;0.90;;;10.50;47.20;;;;;;5120755;27;38527;-83
2021/05/22 03:45:36;;;;;;;1.17;0.80;;;10.30;47.60;;;;;;5134478;27;39879;-82
2021/05/22 03:48:04;;;;;;;2.20;0.70;;;10.20;47.90;;;;;;5135570;27;37845;-82
2021/05/22 03:50:31;;;;;;;1.10;0.60;;;10.20;48.10;;;;;;5109880;27;36209;-82
2021/05/22 03:53:00;;;;;;;1.43;0.70;;;10.10;48.40;;;;;;5105823;27;39675;-82
2021/05/22 03:55:27;;;;;;;1.77;0.70;;;10.10;48.80;;;;;;5137031;27;39172;-82
2021/05/22 03:57:54;;;;;;;3.17;1.30;;;10.10;49.20;;;;;;5114218;27;37761;-83
2021/05/22 04:00:22;;;;;;;1.77;0.90;;;10.10;49.80;;;;;;5128067;27;36095;-82
2021/05/22 04:02:49;;;;;;;1.87;0.90;;;10.20;49.20;;;;;;5108218;27;35896;-82
2021/05/22 04:05:16;;;;;;;1.67;0.83;;;10.20;49.10;;;;;;5115133;27;37684;-82
2021/05/22 04:07:43;;;;;;;4.40;1.10;;;10.20;49.10;;;;;;5136951;27;37799;-82
2021/05/22 04:10:12;;;;;;;2.50;1.20;;;10.20;49.20;;;;;;5138801;27;38022;-82
2021/05/22 04:12:39;;;;;;;3.93;1.00;;;10.20;49.30;;;;;;5127191;27;38434;-82
2021/05/22 04:15:07;;;;;;;1.30;1.00;;;10.20;49.20;;;;;;5132137;27;39167;-82
2021/05/22 04:17:34;;;;;;;1.77;0.73;;;10.20;49.40;;;;;;5160563;27;39453;-82
2021/05/22 04:20:02;;;;;;;2.67;0.90;;;10.30;49.30;;;;;;5171537;27;37625;-82
2021/05/22 04:22:28;;;;;;;0.80;0.53;;;10.30;49.30;;;;;;5155750;27;39630;-81
2021/05/22 04:24:58;;;;;;;2.00;1.00;;;10.30;49.40;;;;;;5139925;27;39003;-81
2021/05/22 04:27:25;;;;;;;2.13;0.90;;;10.30;49.60;;;;;;5131836;27;38064;-79
2021/05/22 04:29:54;;;;;;;1.80;0.83;;;10.30;49.80;;;;;;5158131;27;38417;-82
2021/05/22 04:32:21;;;;;;;1.63;1.07;;;10.40;50.00;;;;;;5152057;27;39594;-82
2021/05/22 04:34:49;;;;;;;3.53;1.10;;;10.50;49.80;;;;;;5139752;27;39317;-82
2021/05/22 04:37:16;;;;;;;1.67;0.97;;;10.70;49.70;;;;;;5120748;27;37228;-82
2021/05/22 04:39:43;;;;;;;1.10;0.73;;;11.00;49.30;;;;;;5139503;27;37925;-82
2021/05/22 04:42:10;;;;;;;2.77;0.87;;;11.10;48.80;;;;;;5121501;27;38212;-82
2021/05/22 04:44:37;;;;;;;1.20;0.80;;;11.30;48.60;;;;;;5135263;27;38962;-82
2021/05/22 04:47:04;;;;;;;2.90;0.70;;;11.50;48.40;;;;;;5123378;27;37892;-82
2021/05/22 04:49:31;;;;;;;3.47;0.90;;;11.60;48.00;;;;;;5136449;27;36916;-83
2021/05/22 04:51:59;;;;;;;2.10;0.77;;;11.70;48.10;;;;;;5114713;27;39855;-84
2021/05/22 04:54:27;;;;;;;1.00;0.70;;;11.70;47.80;;;;;;5103371;27;37652;-83
2021/05/22 04:56:54;;;;;;;1.40;0.87;;;11.80;47.60;;;;;;5134088;27;39031;-83
2021/05/22 04:59:22;;;;;;;0.80;0.70;;;11.80;47.50;;;;;;5148196;27;38063;-83
2021/05/22 05:01:49;;;;;;;3.63;0.80;;;11.70;47.60;;;;;;5134153;27;39409;-83
2021/05/22 05:04:16;;;;;;;2.57;0.90;;;11.60;47.50;;;;;;5127559;27;39091;-83
2021/05/22 05:06:43;;;;;;;1.97;0.80;;;11.50;47.70;;;;;;5137908;27;38687;-84
2021/05/22 05:09:11;;;;;;;3.20;0.90;;;11.40;47.90;;;;;;5145102;27;35774;-83
2021/05/22 05:11:38;;;;;;;2.60;1.37;;;11.40;48.00;;;;;;5117616;27;39950;-83
2021/05/22 05:14:05;;;;;;;2.30;1.10;;;11.40;48.40;;;;;;5136125;27;38950;-84
2021/05/22 05:16:32;;;;;;;3.23;0.90;;;11.50;48.30;;;;;;5133029;27;38889;-84
2021/05/22 05:18:59;;;;;;;1.40;1.00;;;11.70;48.70;;;;;;5128218;27;35818;-84
2021/05/22 05:21:26;;;;;;;1.90;0.70;;;12.00;48.20;;;;;;5130827;27;40394;-84
2021/05/22 05:23:53;;;;;;;1.87;0.70;;;12.30;47.50;;;;;;5118766;27;38596;-84
2021/05/22 05:26:21;;;;;;;2.10;0.83;;;12.50;47.00;;;;;;5135309;27;37893;-83
2021/05/22 05:28:48;;;;;;;1.93;0.70;;;12.80;47.00;;;;;;5118383;27;36074;-85
2021/05/22 05:31:17;;;;;;;1.80;0.80;;;13.20;46.50;;;;;;5110229;27;41185;-83
2021/05/22 05:33:44;;;;;;;1.10;0.80;;;13.60;45.70;;;;;;5139588;27;39655;-83
2021/05/22 05:36:11;;;;;;;0.87;0.53;;;14.10;44.50;;;;;;5136585;27;37937;-83
2021/05/22 05:38:38;;;;;;;2.03;0.80;;;14.50;43.40;;;;;;5133757;27;37315;-83
2021/05/22 05:41:05;;;;;;;1.57;0.87;;;14.80;42.70;;;;;;5123355;27;40834;-83
2021/05/22 05:43:33;;;;;;;3.27;0.80;;;15.00;41.70;;;;;;5133836;27;38028;-85
2021/05/22 05:46:03;;;;;;;1.77;0.70;;;15.00;41.00;;;;;;5119720;27;37087;-83
2021/05/22 05:48:30;;;;;;;4.30;1.20;;;15.10;40.70;;;;;;5121088;27;36487;-84
2021/05/22 05:50:57;;;;;;;2.37;0.87;;;15.00;41.00;;;;;;5123038;27;39341;-85
2021/05/22 05:53:24;;;;;;;2.07;1.00;;;16.20;42.50;;;;;;5129349;27;38806;-84
2021/05/22 05:55:51;;;;;;;2.80;0.90;;;18.90;37.40;;;;;;5145743;27;37821;-86
2021/05/22 05:58:18;;;;;;;2.00;0.80;;;21.40;32.70;;;;;;5116345;27;36276;-84
2021/05/22 06:00:46;;;;;;;1.93;1.10;;;23.00;30.90;;;;;;5129199;27;39357;-85
2021/05/22 06:03:13;;;;;;;3.60;1.00;;;24.70;29.00;;;;;;5131504;27;40068;-85
2021/05/22 06:05:43;;;;;;;3.03;1.13;;;26.60;26.70;;;;;;5119707;27;37912;-85
2021/05/22 06:08:10;;;;;;;2.47;1.00;;;28.20;25.00;;;;;;5123292;27;35934;-85
2021/05/22 06:10:37;;;;;;;2.10;0.77;;;29.50;23.10;;;;;;5145094;27;39591;-87
2021/05/22 06:13:04;;;;;;;2.63;0.90;;;30.80;21.20;;;;;;5135216;27;37822;-86
2021/05/22 06:15:33;;;;;;;2.17;0.80;;;31.10;20.00;;;;;;5121520;27;37156;-86
2021/05/22 06:18:02;;;;;;;3.27;1.00;;;29.60;20.40;;;;;;5117544;27;36708;-86
2021/05/22 06:20:29;;;;;;;4.20;1.17;;;27.40;21.50;;;;;;5134627;27;38477;-85
2021/05/22 06:22:57;;;;;;;4.60;1.07;;;25.80;23.30;;;;;;5142618;27;41703;-85
2021/05/22 06:25:24;;;;;;;2.20;0.80;;;24.60;24.30;;;;;;5145038;27;39124;-86
2021/05/22 06:27:51;;;;;;;3.83;1.10;;;24.10;24.80;;;;;;5150795;27;37696;-87
2021/05/22 06:30:19;;;;;;;2.50;0.93;;;23.60;24.90;;;;;;5131466;27;38497;-85
2021/05/22 06:32:46;;;;;;;3.90;1.27;;;22.50;25.50;;;;;;5148905;27;39880;-85
2021/05/22 06:35:14;;;;;;;3.37;1.10;;;21.50;26.70;;;;;;5142422;27;38420;-86
2021/05/22 06:37:41;;;;;;;2.70;1.27;;;21.50;27.10;;;;;;5138561;27;38209;-86
2021/05/22 06:40:11;;;;;;;2.50;0.93;;;22.60;25.70;;;;;;5138328;27;40850;-86
2021/05/22 06:42:38;;;;;;;4.10;1.00;;;23.10;25.10;;;;;;5136964;27;39483;-85
2021/05/22 06:45:09;;;;;;;2.63;1.00;;;22.10;25.60;;;;;;5115659;27;36981;-86
2021/05/22 06:47:36;;;;;;;7.80;1.40;;;21.50;26.40;;;;;;5136753;27;37099;-86
2021/05/22 06:50:04;;;;;;;3.73;1.10;;;20.80;27.60;;;;;;5119156;27;39617;-87
2021/05/22 06:52:33;;;;;;;2.93;1.10;;;20.30;27.40;;;;;;5126346;27;37920;-89
2021/05/22 06:55:08;;;;;;;2.60;1.37;;;19.60;27.80;;;;;;5131645;27;38310;-89
2021/05/22 06:57:50;;;;;;;2.50;1.00;;;19.60;29.10;;;;;;5117041;27;35882;-89
2021/05/22 07:00:50;;;;;;;3.57;0.97;;;21.30;27.70;;;;;;5118043;27;39354;-89
2021/05/22 07:03:28;;;;;;;2.20;0.90;;;23.10;25.70;;;;;;5106805;27;37956;-89
2021/05/22 07:06:02;;;;;;;4.43;1.00;;;24.70;24.40;;;;;;5140876;27;38337;-88
2021/05/22 07:11:49;;;;;;;4.57;1.20;;;25.50;22.50;;;;;;5122325;27;40814;-91
2021/05/22 07:14:27;;;;;;;2.20;0.90;;;27.60;21.70;;;;;;5110993;27;39151;-88
2021/05/22 07:17:00;;;;;;;3.37;1.20;;;28.50;20.40;;;;;;5139122;27;39115;-88
2021/05/22 07:19:41;;;;;;;1.83;1.10;;;28.30;20.20;;;;;;5121862;27;35999;-89
2021/05/22 07:22:13;;;;;;;4.03;0.90;;;27.20;20.70;;;;;;5114476;27;39703;-90
2021/05/22 07:24:51;;;;;;;3.80;1.00;;;26.00;21.90;;;;;;5110346;27;37116;-89
2021/05/22 07:27:22;;;;;;;1.90;0.90;;;24.70;22.70;;;;;;5121878;27;37970;-90
2021/05/22 07:29:52;;;;;;;4.43;0.90;;;23.60;23.40;;;;;;5135600;27;37038;-88
2021/05/22 07:32:23;;;;;;;3.77;1.10;;;22.70;24.50;;;;;;5108909;27;38174;-89
2021/05/22 07:34:56;;;;;;;2.60;0.70;;;23.50;25.00;;;;;;5121148;27;37514;-89
2021/05/22 07:41:28;;;;;;;3.23;1.13;;;27.20;21.50;;;;;;5073837;28;38400;-89
2021/05/22 07:44:25;;;;;;;6.43;1.10;;;29.20;19.80;;;;;;5070928;28;40299;-88
2021/05/22 07:46:52;;;;;;;3.23;1.00;;;28.60;18.80;;;;;;5116308;27;38564;-89
2021/05/22 07:49:40;;;;;;;1.97;0.80;;;26.70;20.50;;;;;;5119175;27;38237;-87
2021/05/22 07:53:00;;;;;;;2.33;0.80;;;26.00;21.50;;;;;;5115956;27;37404;-91
2021/05/22 08:07:50;;;;;;;4.13;0.70;;;35.10;14.70;;;;;;5091164;27;36847;-90
2021/05/22 08:17:25;;;;;;;3.20;0.90;;;34.70;13.30;;;;;;5088016;27;36959;-90
2021/05/22 08:20:49;;;;;;;4.23;1.20;;;35.30;12.50;;;;;;5120624;27;38460;-91
2021/05/22 08:24:35;;;;;;;3.40;1.00;;;35.30;12.50;;;;;;4999554;28;39556;-88
2021/05/22 08:31:25;;;;;;;4.43;1.43;;;33.40;12.90;;;;;;4995427;28;37439;-90
2021/05/22 08:33:54;;;;;;;7.60;1.20;;;32.90;13.00;;;;;;5068846;28;37644;-89
2021/05/22 08:36:46;;;;;;;3.57;1.00;;;32.50;13.10;;;;;;5058879;28;39364;-89
2021/05/22 09:01:25;;;;;;;1.97;0.60;;;36.10;10.60;;;;;;5137399;27;38046;-90
2021/05/22 09:03:58;;;;;;;2.90;1.00;;;37.10;10.30;;;;;;5119599;27;38690;-90
2021/05/22 09:06:27;;;;;;;1.80;0.70;;;37.70;10.00;;;;;;5114297;27;38892;-90
2021/05/22 09:09:03;;;;;;;8.83;1.07;;;37.10;9.80;;;;;;5135023;27;38954;-89
2021/05/22 09:11:47;;;;;;;2.97;0.90;;;36.10;10.40;;;;;;5129264;27;37843;-88
2021/05/22 09:14:45;;;;;;;4.80;1.10;;;36.10;10.30;;;;;;5119252;27;40324;-90
2021/05/22 09:17:14;;;;;;;2.93;1.00;;;37.30;10.60;;;;;;5135935;27;37992;-90
2021/05/22 09:19:42;;;;;;;1.70;0.70;;;37.40;9.60;;;;;;5117221;27;39168;-89
2021/05/22 09:22:15;;;;;;;3.43;1.00;;;38.30;9.00;;;;;;5117187;27;37616;-89
2021/05/22 09:24:57;;;;;;;5.70;0.97;;;39.10;8.90;;;;;;5128316;27;39987;-88
2021/05/22 09:27:32;;;;;;;2.97;0.70;;;39.00;8.70;;;;;;5120746;27;38571;-91
2021/05/22 09:30:08;;;;;;;2.20;0.90;;;39.10;8.60;;;;;;5126685;27;38742;-88
2021/05/22 09:32:36;;;;;;;15.20;1.73;;;38.70;8.90;;;;;;5135208;27;37028;-88
2021/05/22 09:35:07;;;;;;;4.70;1.17;;;37.30;8.80;;;;;;5140030;27;40259;-89
2021/05/22 09:37:43;;;;;;;2.97;0.93;;;37.10;9.00;;;;;;5135697;27;38870;-87
2021/05/22 09:40:11;;;;;;;4.70;0.80;;;36.90;9.10;;;;;;5112589;27;37248;-90
2021/05/22 09:42:41;;;;;;;1.80;1.00;;;36.40;9.30;;;;;;5111773;27;35661;-89
2021/05/22 09:45:27;;;;;;;1.90;0.80;;;37.00;8.90;;;;;;5113234;27;40011;-87
2021/05/22 09:47:56;;;;;;;3.73;1.03;;;37.00;8.40;;;;;;5110106;27;38161;-89
2021/05/22 09:50:36;;;;;;;1.67;0.70;;;37.50;8.60;;;;;;5134550;27;38697;-89
2021/05/22 09:53:27;;;;;;;2.77;1.00;;;38.30;8.30;;;;;;5105566;27;38757;-89
2021/05/22 09:56:17;;;;;;;4.50;1.20;;;38.80;8.40;;;;;;5111701;27;38927;-89
2021/05/22 09:58:53;;;;;;;2.03;0.60;;;39.20;7.70;;;;;;5109738;27;40312;-89
2021/05/22 10:01:41;;;;;;;4.83;1.13;;;38.40;7.50;;;;;;5113079;27;37596;-89
2021/05/22 10:04:44;;;;;;;;;;;;;;;;;;;;;
2021/05/22 10:08:05;;;;;;;4.00;0.70;;;37.80;7.70;;;;;;5117088;27;38878;-89
2021/05/22 10:10:40;;;;;;;2.77;0.80;;;36.90;8.20;;;;;;5127857;27;38480;-88
2021/05/22 10:13:16;;;;;;;2.60;1.07;;;35.10;8.70;;;;;;5110750;27;37413;-88
2021/05/22 10:15:54;;;;;;;2.60;1.10;;;33.00;9.30;;;;;;5130427;27;37130;-89
2021/05/22 10:19:29;;;;;;;1.47;0.70;;;31.50;10.10;;;;;;5112002;27;39504;-88
2021/05/22 10:32:39;;;;;;;5.10;0.90;;;32.40;9.70;;;;;;5093127;27;40424;-88
2021/05/22 10:35:29;;;;;;;4.20;0.70;;;33.10;9.70;;;;;;5121216;27;39707;-89
2021/05/22 10:38:51;;;;;;;0.87;0.50;;;32.20;9.70;;;;;;5125829;27;39111;-89
2021/05/22 10:41:38;;;;;;;2.67;0.73;;;31.70;10.00;;;;;;5113843;27;37029;-85
2021/05/22 10:44:06;;;;;;;2.00;0.60;;;32.20;10.80;;;;;;5133008;27;39298;-86
2021/05/22 10:46:54;;;;;;;3.47;0.70;;;33.00;9.20;;;;;;5136245;27;40043;-83
2021/05/22 10:49:49;;;;;;;2.63;1.00;;;32.50;10.00;;;;;;5113984;27;37970;-84
2021/05/22 10:52:18;;;;;;;4.30;1.23;;;30.40;9.90;;;;;;5107562;27;36159;-86
2021/05/22 10:55:01;;;;;;;1.80;0.60;;;29.80;10.60;;;;;;5105976;27;39965;-84
2021/05/22 10:57:29;;;;;;;3.03;0.80;;;30.10;11.00;;;;;;5111707;27;38216;-84
2021/05/22 11:00:20;;;;;;;4.37;0.90;;;29.90;10.30;;;;;;5135804;27;36583;-84
2021/05/22 11:02:49;;;;;;;3.07;0.60;;;30.30;10.80;;;;;;5127954;27;38114;-84
2021/05/22 11:05:37;;;;;;;5.20;1.10;;;30.20;10.60;;;;;;5133347;27;40059;-84
2021/05/22 11:08:30;;;;;;;2.17;0.73;;;29.10;10.80;;;;;;5115877;27;38924;-84
2021/05/22 11:11:00;;;;;;;3.93;0.87;;;28.50;11.30;;;;;;5117744;27;37038;-84
2021/05/22 11:13:39;;;;;;;2.37;0.60;;;28.10;11.40;;;;;;5126836;27;38414;-85
2021/05/22 11:16:08;;;;;;;3.70;0.90;;;27.60;11.60;;;;;;5120798;27;38940;-85
2021/05/22 11:19:01;;;;;;;3.07;1.00;;;26.90;13.40;;;;;;5123012;27;37657;-85
2021/05/22 11:21:29;;;;;;;2.60;0.97;;;26.50;13.60;;;;;;5117496;27;38096;-84
2021/05/22 11:24:11;;;;;;;2.73;0.80;;;25.70;13.50;;;;;;5119398;27;36774;-85
2021/05/22 11:27:02;;;;;;;2.70;0.90;;;24.90;14.10;;;;;;5101705;27;38364;-88
2021/05/22 11:33:13;;;;;;;3.60;0.90;;;23.50;14.30;;;;;;5116083;27;39892;-88
2021/05/22 11:35:52;;;;;;;2.63;0.80;;;22.80;15.40;;;;;;5144370;27;37352;-87
2021/05/22 11:41:48;;;;;;;2.53;0.87;;;21.80;16.10;;;;;;5121526;27;37883;-87
2021/05/22 11:44:15;;;;;;;1.63;0.80;;;21.20;17.10;;;;;;5116440;27;37201;-88
2021/05/22 11:47:11;;;;;;;2.73;0.80;;;20.90;16.90;;;;;;5128659;27;35686;-88
2021/05/22 11:52:35;;;;;;;3.10;1.07;;;20.40;17.50;;;;;;5110219;27;38140;-86
2021/05/22 11:55:20;;;;;;;3.13;0.83;;;20.20;17.40;;;;;;5132464;27;37723;-85
2021/05/22 11:58:04;;;;;;;3.37;0.97;;;20.20;17.30;;;;;;5115418;27;36522;-88
2021/05/22 12:00:31;;;;;;;3.40;0.70;;;20.10;17.80;;;;;;5133959;27;39521;-87
2021/05/22 12:02:59;;;;;;;0.90;0.60;;;19.90;17.80;;;;;;5109603;28;37886;-86
2021/05/22 12:05:40;;;;;;;1.37;0.67;;;19.90;17.70;;;;;;5112889;27;38848;-87
2021/05/22 12:08:15;;;;;;;3.83;0.60;;;20.00;17.80;;;;;;5151346;27;37644;-86
2021/05/22 12:10:43;;;;;;;2.00;0.67;;;20.10;17.70;;;;;;5142385;27;39328;-88
2021/05/22 12:13:10;;;;;;;0.80;0.50;;;20.10;17.80;;;;;;5131647;27;37841;-87
2021/05/22 12:15:42;;;;;;;1.30;0.90;;;19.90;17.70;;;;;;5120734;27;36854;-87
2021/05/22 12:18:10;;;;;;;1.53;0.87;;;19.90;17.80;;;;;;5139606;27;37049;-86
2021/05/22 12:20:49;;;;;;;3.63;0.90;;;19.70;17.10;;;;;;5154877;27;39811;-86
2021/05/22 12:23:25;;;;;;;0.90;0.70;;;19.70;18.40;;;;;;5136911;27;39495;-90
2021/05/22 12:26:16;;;;;;;1.23;0.80;;;19.60;18.10;;;;;;5120746;27;36621;-90
2021/05/22 12:29:01;;;;;;;2.10;0.50;;;19.70;18.60;;;;;;5118937;27;37869;-87
2021/05/22 12:31:30;;;;;;;2.03;0.70;;;19.80;18.20;;;;;;5117564;27;38375;-89
2021/05/22 12:34:03;;;;;;;4.17;0.60;;;19.80;18.60;;;;;;5129344;27;38699;-90
2021/05/22 12:36:32;;;;;;;2.17;0.70;;;19.90;18.80;;;;;;5114810;27;37732;-88
2021/05/22 12:39:14;;;;;;;2.37;0.60;;;19.80;18.90;;;;;;5101174;27;36620;-90
2021/05/22 12:41:48;;;;;;;4.67;1.17;;;19.90;19.30;;;;;;5111223;27;41466;-90
2021/05/22 12:44:27;;;;;;;2.00;0.60;;;19.90;18.60;;;;;;5117524;27;38031;-89
2021/05/22 12:47:00;;;;;;;1.70;0.73;;;19.90;19.40;;;;;;5111297;27;38045;-89
2021/05/22 12:49:39;;;;;;;3.63;0.97;;;19.90;18.60;;;;;;5133798;27;36719;-86
2021/05/22 12:52:10;;;;;;;1.67;0.70;;;20.00;18.90;;;;;;5127619;27;40646;-86
2021/05/22 12:54:51;;;;;;;1.73;0.70;;;20.00;18.70;;;;;;5109729;27;38846;-89
2021/05/22 12:57:20;;;;;;;1.67;0.60;;;20.00;18.20;;;;;;5113714;27;36273;-87
2021/05/22 13:00:08;;;;;;;1.63;0.63;;;20.00;17.70;;;;;;5112029;27;37361;-88
2021/05/22 13:06:14;;;;;;;5.77;1.90;;;20.00;18.80;;;;;;5151351;27;40611;-89
2021/05/22 13:08:50;;;;;;;2.73;0.87;;;19.90;18.20;;;;;;5134240;27;37925;-88
2021/05/22 13:11:28;;;;;;;5.03;0.90;;;19.90;17.70;;;;;;5123089;27;37458;-88
2021/05/22 13:18:00;;;;;;;1.37;0.40;;;19.90;17.50;;;;;;5064441;28;38826;-88
2021/05/22 13:20:39;;;;;;;1.93;0.67;;;20.00;18.30;;;;;;5094183;27;36768;-87
2021/05/22 13:23:14;;;;;;;3.07;0.70;;;20.20;18.50;;;;;;5125483;27;35774;-88
2021/05/22 13:26:16;;;;;;;1.43;0.60;;;20.40;18.50;;;;;;5131313;27;38647;-88
2021/05/22 13:29:09;;;;;;;3.37;0.73;;;20.60;18.10;;;;;;5125513;27;39565;-86
2021/05/22 13:31:56;;;;;;;2.07;0.53;;;20.90;17.90;;;;;;5124311;27;38653;-87
2021/05/22 13:38:08;;;;;;;1.23;0.50;;;21.00;17.70;;;;;;5129062;27;39281;-89
2021/05/22 13:40:42;;;;;;;1.30;0.50;;;20.90;18.20;;;;;;5122215;27;39421;-86
2021/05/22 13:43:11;;;;;;;1.20;0.50;;;20.90;17.90;;;;;;5133992;27;37233;-87
2021/05/22 13:45:53;;;;;;;2.63;0.70;;;20.80;18.10;;;;;;5134111;27;37413;-85
2021/05/22 14:00:04;;;;;;;2.10;0.70;;;20.40;19.00;;;;;;5079795;28;37976;-90
2021/05/22 14:14:28;;;;;;;1.53;0.50;;;20.30;19.60;;;;;;5071516;28;37979;-88
2021/05/22 14:17:57;;;;;;;1.43;0.77;;;20.30;18.50;;;;;;4993755;28;40630;-89
2021/05/22 14:20:27;;;;;;;3.00;1.10;;;20.30;18.50;;;;;;5012563;28;39920;-88
2021/05/22 14:22:54;;;;;;;1.53;0.60;;;20.30;18.60;;;;;;5117730;27;39094;-87
2021/05/22 14:25:22;;;;;;;1.20;0.60;;;20.30;18.10;;;;;;5137192;27;37322;-88
2021/05/22 14:27:50;;;;;;;1.90;0.50;;;20.20;18.50;;;;;;5118837;27;38341;-89
2021/05/22 14:30:19;;;;;;;1.20;0.63;;;20.20;18.60;;;;;;5140122;27;38937;-89
2021/05/22 14:32:49;;;;;;;1.40;0.60;;;20.30;18.70;;;;;;5129336;27;37044;-89
2021/05/22 14:35:18;;;;;;;1.13;0.50;;;20.30;18.00;;;;;;5138060;27;37095;-90
2021/05/22 14:37:50;;;;;;;2.47;0.60;;;20.30;17.60;;;;;;5123004;27;37095;-88
2021/05/22 14:40:21;;;;;;;2.60;0.70;;;20.30;18.30;;;;;;5137138;27;39047;-88
2021/05/22 14:42:48;;;;;;;1.03;0.50;;;20.30;17.40;;;;;;5117399;27;37400;-92
2021/05/22 14:45:19;;;;;;;0.80;0.40;;;20.20;17.20;;;;;;5133442;27;37131;-88
2021/05/22 14:47:51;;;;;;;2.30;0.60;;;20.20;17.80;;;;;;5133182;27;40222;-87
2021/05/22 14:50:20;;;;;;;1.60;0.70;;;20.10;17.30;;;;;;5117604;27;38108;-88
2021/05/22 14:52:48;;;;;;;2.73;0.60;;;20.10;18.10;;;;;;5115108;27;37114;-88
2021/05/22 14:55:19;;;;;;;1.77;1.07;;;20.20;18.10;;;;;;5120577;27;36312;-87
2021/05/22 14:57:46;;;;;;;2.60;1.00;;;20.20;18.30;;;;;;5144393;27;39205;-89
2021/05/22 15:00:23;;;;;;;1.27;0.60;;;20.10;18.20;;;;;;5137264;27;39169;-90
2021/05/22 15:03:01;;;;;;;4.70;0.80;;;20.00;18.30;;;;;;5144742;27;38409;-87
2021/05/22 15:05:28;;;;;;;1.77;0.80;;;19.90;18.90;;;;;;5116166;27;35975;-88
2021/05/22 15:07:56;;;;;;;1.27;0.60;;;20.00;18.50;;;;;;5111833;27;38372;-91